sensor_id;sensor_type;location;lat;lon;timestamp;P1;P2;P0
79038;PMS5003;68436;55.068;73.284;2023-04-06T00:01:36;42.00;33.00;20.50
79038;PMS5003;68436;55.068;73.284;2023-04-06T00:04:49;39.00;31.00;21.00
79038;PMS5003;68436;55.068;73.284;2023-04-06T00:07:15;39.33;32.00;20.00
79038;PMS5003;68436;55.068;73.284;2023-04-06T00:09:51;34.25;27.00;18.50
79038;PMS5003;68436;55.068;73.284;2023-04-06T00:12:54;34.00;28.00;18.00
79038;PMS5003;68436;55.068;73.284;2023-04-06T00:15:22;35.00;29.00;19.00
79038;PMS5003;68436;55.068;73.284;2023-04-06T00:20:33;37.00;30.00;19.00
79038;PMS5003;68436;55.068;73.284;2023-04-06T00:22:59;40.67;33.00;21.67
79038;PMS5003;68436;55.068;73.284;2023-04-06T00:25:30;41.00;33.00;21.00
79038;PMS5003;68436;55.068;73.284;2023-04-06T00:27:56;40.33;33.00;20.00
79038;PMS5003;68436;55.068;73.284;2023-04-06T00:33:32;40.00;32.00;21.00
79038;PMS5003;68436;55.068;73.284;2023-04-06T00:36:03;39.00;31.50;21.00
79038;PMS5003;68436;55.068;73.284;2023-04-06T00:42:00;45.00;36.00;24.00
79038;PMS5003;68436;55.068;73.284;2023-04-06T00:44:33;48.00;38.00;24.00
79038;PMS5003;68436;55.068;73.284;2023-04-06T00:50:09;49.00;39.00;26.00
79038;PMS5003;68436;55.068;73.284;2023-04-06T00:53:20;47.67;37.67;24.67
79038;PMS5003;68436;55.068;73.284;2023-04-06T01:01:35;238.25;184.75;106.25
79038;PMS5003;68436;55.068;73.284;2023-04-06T01:04:41;335.75;253.75;134.75
79038;PMS5003;68436;55.068;73.284;2023-04-06T01:13:25;140.67;113.33;63.00
79038;PMS5003;68436;55.068;73.284;2023-04-06T01:16:25;65.25;49.00;31.50
79038;PMS5003;68436;55.068;73.284;2023-04-06T01:19:13;64.75;50.25;32.00
79038;PMS5003;68436;55.068;73.284;2023-04-06T01:22:01;53.50;39.00;23.50
79038;PMS5003;68436;55.068;73.284;2023-04-06T01:24:29;46.50;35.50;22.75
79038;PMS5003;68436;55.068;73.284;2023-04-06T01:27:08;43.50;34.25;21.50
79038;PMS5003;68436;55.068;73.284;2023-04-06T01:36:00;38.00;30.00;20.00
79038;PMS5003;68436;55.068;73.284;2023-04-06T01:44:47;36.00;30.00;19.50
79038;PMS5003;68436;55.068;73.284;2023-04-06T01:50:16;35.25;28.00;18.00
79038;PMS5003;68436;55.068;73.284;2023-04-06T01:53:01;36.00;30.00;19.67
79038;PMS5003;68436;55.068;73.284;2023-04-06T01:55:28;38.50;30.75;19.50
79038;PMS5003;68436;55.068;73.284;2023-04-06T01:58:27;41.33;33.00;20.00
79038;PMS5003;68436;55.068;73.284;2023-04-06T02:01:11;56.50;46.00;31.25
79038;PMS5003;68436;55.068;73.284;2023-04-06T02:03:54;75.00;53.00;33.00
79038;PMS5003;68436;55.068;73.284;2023-04-06T02:06:21;44.00;36.00;25.00
79038;PMS5003;68436;55.068;73.284;2023-04-06T02:08:48;36.67;29.33;19.00
79038;PMS5003;68436;55.068;73.284;2023-04-06T02:11:32;42.00;33.00;22.00
79038;PMS5003;68436;55.068;73.284;2023-04-06T02:17:00;36.00;30.00;20.00
79038;PMS5003;68436;55.068;73.284;2023-04-06T02:22:56;43.00;34.00;23.00
79038;PMS5003;68436;55.068;73.284;2023-04-06T02:28:25;32.00;27.00;18.00
79038;PMS5003;68436;55.068;73.284;2023-04-06T02:30:51;35.00;29.00;19.00
79038;PMS5003;68436;55.068;73.284;2023-04-06T02:33:35;39.25;32.75;22.00
79038;PMS5003;68436;55.068;73.284;2023-04-06T02:36:02;40.00;31.50;20.75
79038;PMS5003;68436;55.068;73.284;2023-04-06T02:41:23;31.25;26.50;17.00
79038;PMS5003;68436;55.068;73.284;2023-04-06T02:47:00;26.00;23.00;15.00
79038;PMS5003;68436;55.068;73.284;2023-04-06T02:49:26;40.00;32.00;21.75
79038;PMS5003;68436;55.068;73.284;2023-04-06T02:54:45;34.00;27.00;19.00
79038;PMS5003;68436;55.068;73.284;2023-04-06T03:00:11;35.75;29.00;18.00
79038;PMS5003;68436;55.068;73.284;2023-04-06T03:05:25;92.75;71.00;41.00
79038;PMS5003;68436;55.068;73.284;2023-04-06T03:07:51;53.00;40.67;25.67
79038;PMS5003;68436;55.068;73.284;2023-04-06T03:13:48;69.00;55.00;35.75
79038;PMS5003;68436;55.068;73.284;2023-04-06T03:16:14;58.75;46.25;30.50
79038;PMS5003;68436;55.068;73.284;2023-04-06T03:22:00;62.00;49.00;31.00
79038;PMS5003;68436;55.068;73.284;2023-04-06T03:24:27;28.00;24.00;17.00
79038;PMS5003;68436;55.068;73.284;2023-04-06T03:27:12;28.75;24.75;15.50
79038;PMS5003;68436;55.068;73.284;2023-04-06T03:29:39;47.00;37.50;25.25
79038;PMS5003;68436;55.068;73.284;2023-04-06T03:32:09;39.00;33.00;23.00
79038;PMS5003;68436;55.068;73.284;2023-04-06T03:37:24;55.00;44.00;30.25
79038;PMS5003;68436;55.068;73.284;2023-04-06T03:40:30;26.00;22.00;14.75
79038;PMS5003;68436;55.068;73.284;2023-04-06T03:43:00;24.00;20.67;14.00
79038;PMS5003;68436;55.068;73.284;2023-04-06T03:49:07;20.50;17.50;11.25
79038;PMS5003;68436;55.068;73.284;2023-04-06T03:52:00;21.00;18.00;12.00
79038;PMS5003;68436;55.068;73.284;2023-04-06T03:55:04;18.00;15.25;9.75
79038;PMS5003;68436;55.068;73.284;2023-04-06T03:57:49;25.00;19.67;11.33
79038;PMS5003;68436;55.068;73.284;2023-04-06T04:00:15;21.00;17.00;11.25
79038;PMS5003;68436;55.068;73.284;2023-04-06T04:02:41;21.00;19.00;12.00
79038;PMS5003;68436;55.068;73.284;2023-04-06T04:05:26;21.25;18.00;11.00
79038;PMS5003;68436;55.068;73.284;2023-04-06T04:08:10;35.33;28.00;19.33
79038;PMS5003;68436;55.068;73.284;2023-04-06T04:10:54;43.00;32.75;21.00
79038;PMS5003;68436;55.068;73.284;2023-04-06T04:13:21;35.00;27.00;18.00
79038;PMS5003;68436;55.068;73.284;2023-04-06T04:15:49;49.25;38.25;25.00
79038;PMS5003;68436;55.068;73.284;2023-04-06T04:18:15;40.33;31.67;20.00
79038;PMS5003;68436;55.068;73.284;2023-04-06T04:21:10;33.50;25.25;13.25
79038;PMS5003;68436;55.068;73.284;2023-04-06T04:23:36;38.67;31.67;20.33
79038;PMS5003;68436;55.068;73.284;2023-04-06T04:26:02;61.25;47.50;30.00
79038;PMS5003;68436;55.068;73.284;2023-04-06T04:28:47;33.00;28.00;18.00
79038;PMS5003;68436;55.068;73.284;2023-04-06T04:31:31;34.00;27.00;18.00
79038;PMS5003;68436;55.068;73.284;2023-04-06T04:37:04;28.75;23.75;14.75
79038;PMS5003;68436;55.068;73.284;2023-04-06T04:39:46;27.75;22.75;14.50
79038;PMS5003;68436;55.068;73.284;2023-04-06T04:42:13;24.00;22.00;14.00
79038;PMS5003;68436;55.068;73.284;2023-04-06T04:44:44;25.00;21.00;11.75
79038;PMS5003;68436;55.068;73.284;2023-04-06T04:47:10;21.00;18.00;12.00
79038;PMS5003;68436;55.068;73.284;2023-04-06T04:50:03;21.25;16.75;11.00
79038;PMS5003;68436;55.068;73.284;2023-04-06T04:55:33;19.75;17.00;10.50
79038;PMS5003;68436;55.068;73.284;2023-04-06T04:58:22;14.00;13.00;8.00
79038;PMS5003;68436;55.068;73.284;2023-04-06T05:01:07;23.00;20.00;13.00
79038;PMS5003;68436;55.068;73.284;2023-04-06T05:03:33;33.00;26.00;17.00
79038;PMS5003;68436;55.068;73.284;2023-04-06T05:06:05;32.50;25.75;16.50
79038;PMS5003;68436;55.068;73.284;2023-04-06T05:08:34;36.25;28.00;18.00
79038;PMS5003;68436;55.068;73.284;2023-04-06T05:11:02;39.00;29.50;18.00
79038;PMS5003;68436;55.068;73.284;2023-04-06T05:13:46;36.00;30.00;20.00
79038;PMS5003;68436;55.068;73.284;2023-04-06T05:19:07;12.25;10.00;7.00
79038;PMS5003;68436;55.068;73.284;2023-04-06T05:30:37;15.75;13.75;9.00
79038;PMS5003;68436;55.068;73.284;2023-04-06T05:33:22;19.00;17.00;12.00
79038;PMS5003;68436;55.068;73.284;2023-04-06T05:36:26;15.00;13.00;10.00
79038;PMS5003;68436;55.068;73.284;2023-04-06T05:39:20;17.75;15.00;10.00
79038;PMS5003;68436;55.068;73.284;2023-04-06T05:42:05;19.60;16.80;11.00
79038;PMS5003;68436;55.068;73.284;2023-04-06T05:44:50;17.00;14.75;9.00
79038;PMS5003;68436;55.068;73.284;2023-04-06T05:50:12;17.00;14.75;9.50
79038;PMS5003;68436;55.068;73.284;2023-04-06T05:55:57;19.00;16.00;11.00
79038;PMS5003;68436;55.068;73.284;2023-04-06T05:58:28;15.75;13.25;8.50
79038;PMS5003;68436;55.068;73.284;2023-04-06T06:01:19;17.25;13.75;8.75
79038;PMS5003;68436;55.068;73.284;2023-04-06T06:04:08;29.00;23.00;14.67
79038;PMS5003;68436;55.068;73.284;2023-04-06T06:09:57;64.00;50.00;31.50
79038;PMS5003;68436;55.068;73.284;2023-04-06T06:12:29;69.00;53.00;32.00
79038;PMS5003;68436;55.068;73.284;2023-04-06T06:17:59;33.00;27.00;16.67
79038;PMS5003;68436;55.068;73.284;2023-04-06T06:20:26;30.00;24.50;16.00
79038;PMS5003;68436;55.068;73.284;2023-04-06T06:23:11;21.00;18.25;12.00
79038;PMS5003;68436;55.068;73.284;2023-04-06T06:25:55;20.50;17.50;12.00
79038;PMS5003;68436;55.068;73.284;2023-04-06T06:28:29;23.00;21.00;14.00
79038;PMS5003;68436;55.068;73.284;2023-04-06T06:30:56;20.25;17.00;11.00
79038;PMS5003;68436;55.068;73.284;2023-04-06T06:33:23;18.00;15.00;9.00
79038;PMS5003;68436;55.068;73.284;2023-04-06T06:35:52;22.00;19.00;12.00
79038;PMS5003;68436;55.068;73.284;2023-04-06T06:41:04;23.50;20.00;13.00
79038;PMS5003;68436;55.068;73.284;2023-04-06T06:49:19;18.00;15.00;9.00
79038;PMS5003;68436;55.068;73.284;2023-04-06T06:52:22;13.00;10.67;7.33
79038;PMS5003;68436;55.068;73.284;2023-04-06T06:54:59;16.00;14.00;9.00
79038;PMS5003;68436;55.068;73.284;2023-04-06T06:57:26;15.00;13.00;7.00
79038;PMS5003;68436;55.068;73.284;2023-04-06T07:03:15;23.00;19.00;11.67
79038;PMS5003;68436;55.068;73.284;2023-04-06T07:05:49;18.00;14.75;9.00
79038;PMS5003;68436;55.068;73.284;2023-04-06T07:08:24;21.00;17.00;10.00
79038;PMS5003;68436;55.068;73.284;2023-04-06T07:14:14;30.33;24.00;14.67
79038;PMS5003;68436;55.068;73.284;2023-04-06T07:19:45;19.00;14.50;9.00
79038;PMS5003;68436;55.068;73.284;2023-04-06T07:22:11;11.00;10.00;7.00
79038;PMS5003;68436;55.068;73.284;2023-04-06T07:24:37;12.50;11.00;7.25
79038;PMS5003;68436;55.068;73.284;2023-04-06T07:27:03;60.00;49.00;35.25
79038;PMS5003;68436;55.068;73.284;2023-04-06T07:29:30;12.50;10.25;7.00
79038;PMS5003;68436;55.068;73.284;2023-04-06T07:34:45;14.50;12.00;8.00
79038;PMS5003;68436;55.068;73.284;2023-04-06T07:37:30;12.00;10.00;7.00
79038;PMS5003;68436;55.068;73.284;2023-04-06T07:40:15;31.00;27.00;19.25
79038;PMS5003;68436;55.068;73.284;2023-04-06T07:42:42;13.00;12.00;7.00
79038;PMS5003;68436;55.068;73.284;2023-04-06T07:45:09;15.00;13.50;8.75
79038;PMS5003;68436;55.068;73.284;2023-04-06T07:50:39;14.00;12.00;8.00
79038;PMS5003;68436;55.068;73.284;2023-04-06T07:53:23;11.00;10.00;7.00
79038;PMS5003;68436;55.068;73.284;2023-04-06T07:55:49;13.00;11.50;8.00
79038;PMS5003;68436;55.068;73.284;2023-04-06T07:58:53;10.00;8.33;6.00
79038;PMS5003;68436;55.068;73.284;2023-04-06T08:04:25;7.00;6.25;4.50
79038;PMS5003;68436;55.068;73.284;2023-04-06T08:06:59;29.75;21.75;13.00
79038;PMS5003;68436;55.068;73.284;2023-04-06T08:09:26;13.25;11.75;8.00
79038;PMS5003;68436;55.068;73.284;2023-04-06T08:12:10;12.00;11.00;9.00
79038;PMS5003;68436;55.068;73.284;2023-04-06T08:14:36;11.75;10.00;6.00
79038;PMS5003;68436;55.068;73.284;2023-04-06T08:17:02;9.67;8.67;6.33
79038;PMS5003;68436;55.068;73.284;2023-04-06T08:19:47;9.00;8.00;5.50
79038;PMS5003;68436;55.068;73.284;2023-04-06T08:22:32;20.00;16.00;11.00
79038;PMS5003;68436;55.068;73.284;2023-04-06T08:24:58;13.75;10.00;7.00
79038;PMS5003;68436;55.068;73.284;2023-04-06T08:27:24;11.00;10.00;7.00
79038;PMS5003;68436;55.068;73.284;2023-04-06T08:29:50;10.25;8.00;5.00
79038;PMS5003;68436;55.068;73.284;2023-04-06T08:35:07;8.00;7.00;5.00
79038;PMS5003;68436;55.068;73.284;2023-04-06T08:40:17;17.00;12.50;7.50
79038;PMS5003;68436;55.068;73.284;2023-04-06T08:48:57;11.75;10.25;7.00
79038;PMS5003;68436;55.068;73.284;2023-04-06T08:55:03;8.75;8.00;6.00
79038;PMS5003;68436;55.068;73.284;2023-04-06T08:58:07;13.00;11.00;6.67
79038;PMS5003;68436;55.068;73.284;2023-04-06T09:03:48;10.00;9.00;7.00
79038;PMS5003;68436;55.068;73.284;2023-04-06T09:06:43;9.50;8.00;5.00
79038;PMS5003;68436;55.068;73.284;2023-04-06T09:09:28;10.00;9.00;6.00
79038;PMS5003;68436;55.068;73.284;2023-04-06T09:14:45;11.00;9.00;5.00
79038;PMS5003;68436;55.068;73.284;2023-04-06T09:17:48;13.00;10.00;7.00
79038;PMS5003;68436;55.068;73.284;2023-04-06T09:20:14;14.50;12.75;9.00
79038;PMS5003;68436;55.068;73.284;2023-04-06T09:22:40;15.00;12.00;7.00
79038;PMS5003;68436;55.068;73.284;2023-04-06T09:25:26;13.00;12.00;8.00
79038;PMS5003;68436;55.068;73.284;2023-04-06T09:30:56;20.00;17.75;11.50
79038;PMS5003;68436;55.068;73.284;2023-04-06T09:33:22;10.00;9.00;6.00
79038;PMS5003;68436;55.068;73.284;2023-04-06T09:35:49;17.00;15.25;11.00
79038;PMS5003;68436;55.068;73.284;2023-04-06T09:38:15;50.00;41.67;28.00
79038;PMS5003;68436;55.068;73.284;2023-04-06T09:43:27;63.67;49.33;29.33
79038;PMS5003;68436;55.068;73.284;2023-04-06T09:46:12;28.00;23.00;13.00
79038;PMS5003;68436;55.068;73.284;2023-04-06T09:51:23;27.00;19.75;12.00
79038;PMS5003;68436;55.068;73.284;2023-04-06T09:54:10;23.00;20.00;12.33
79038;PMS5003;68436;55.068;73.284;2023-04-06T09:56:39;14.25;13.00;8.00
79038;PMS5003;68436;55.068;73.284;2023-04-06T09:59:21;21.00;18.00;13.00
79038;PMS5003;68436;55.068;73.284;2023-04-06T10:07:33;20.00;17.00;11.33
79038;PMS5003;68436;55.068;73.284;2023-04-06T10:10:24;12.75;11.25;7.25
79038;PMS5003;68436;55.068;73.284;2023-04-06T10:13:10;13.00;11.00;7.00
79038;PMS5003;68436;55.068;73.284;2023-04-06T10:15:38;13.00;11.00;7.00
79038;PMS5003;68436;55.068;73.284;2023-04-06T10:21:09;17.00;15.00;10.00
79038;PMS5003;68436;55.068;73.284;2023-04-06T10:27:26;19.00;15.67;10.00
79038;PMS5003;68436;55.068;73.284;2023-04-06T10:32:50;14.00;12.00;8.50
79038;PMS5003;68436;55.068;73.284;2023-04-06T10:35:53;14.00;11.00;7.00
79038;PMS5003;68436;55.068;73.284;2023-04-06T10:38:58;17.00;14.00;9.00
79038;PMS5003;68436;55.068;73.284;2023-04-06T10:41:24;27.00;23.00;14.00
79038;PMS5003;68436;55.068;73.284;2023-04-06T10:47:00;11.00;10.00;5.00
79038;PMS5003;68436;55.068;73.284;2023-04-06T10:49:55;31.00;23.00;13.25
79038;PMS5003;68436;55.068;73.284;2023-04-06T10:52:40;8.00;6.00;4.00
79038;PMS5003;68436;55.068;73.284;2023-04-06T10:55:08;11.00;10.00;6.00
79038;PMS5003;68436;55.068;73.284;2023-04-06T10:57:40;9.00;8.67;5.00
79038;PMS5003;68436;55.068;73.284;2023-04-06T11:02:58;16.67;14.67;8.00
79038;PMS5003;68436;55.068;73.284;2023-04-06T11:05:45;12.75;10.25;7.00
79038;PMS5003;68436;55.068;73.284;2023-04-06T11:08:54;13.00;11.00;6.50
79038;PMS5003;68436;55.068;73.284;2023-04-06T11:11:31;14.75;13.00;7.00
79038;PMS5003;68436;55.068;73.284;2023-04-06T11:14:26;14.50;12.50;8.00
79038;PMS5003;68436;55.068;73.284;2023-04-06T11:17:02;17.00;15.50;10.00
79038;PMS5003;68436;55.068;73.284;2023-04-06T11:22:48;8.00;7.00;5.00
79038;PMS5003;68436;55.068;73.284;2023-04-06T11:27:59;9.00;9.00;5.00
79038;PMS5003;68436;55.068;73.284;2023-04-06T11:30:25;7.00;6.00;3.00
79038;PMS5003;68436;55.068;73.284;2023-04-06T11:33:10;9.00;7.00;4.00
79038;PMS5003;68436;55.068;73.284;2023-04-06T11:35:57;6.00;5.00;3.75
79038;PMS5003;68436;55.068;73.284;2023-04-06T11:41:48;9.00;7.00;5.00
79038;PMS5003;68436;55.068;73.284;2023-04-06T11:44:14;9.00;8.00;4.00
79038;PMS5003;68436;55.068;73.284;2023-04-06T11:47:03;6.50;6.00;5.00
79038;PMS5003;68436;55.068;73.284;2023-04-06T11:49:30;55.75;47.00;34.50
79038;PMS5003;68436;55.068;73.284;2023-04-06T11:54:51;11.25;10.00;8.00
79038;PMS5003;68436;55.068;73.284;2023-04-06T11:57:28;13.00;12.00;9.00
79038;PMS5003;68436;55.068;73.284;2023-04-06T11:59:54;10.25;9.75;7.00
79038;PMS5003;68436;55.068;73.284;2023-04-06T12:02:39;10.00;9.00;6.00
79038;PMS5003;68436;55.068;73.284;2023-04-06T12:05:24;8.50;7.50;4.00
79038;PMS5003;68436;55.068;73.284;2023-04-06T12:08:18;11.00;9.00;5.00
79038;PMS5003;68436;55.068;73.284;2023-04-06T12:11:08;8.00;6.00;4.00
79038;PMS5003;68436;55.068;73.284;2023-04-06T12:16:24;7.00;6.00;4.00
79038;PMS5003;68436;55.068;73.284;2023-04-06T12:18:50;8.00;7.00;5.00
79038;PMS5003;68436;55.068;73.284;2023-04-06T12:24:20;11.75;9.00;5.50
79038;PMS5003;68436;55.068;73.284;2023-04-06T12:26:46;10.00;9.00;5.25
79038;PMS5003;68436;55.068;73.284;2023-04-06T12:29:49;11.00;10.00;6.00
79038;PMS5003;68436;55.068;73.284;2023-04-06T12:32:16;10.75;9.00;5.00
79038;PMS5003;68436;55.068;73.284;2023-04-06T12:34:47;9.50;8.00;5.00
79038;PMS5003;68436;55.068;73.284;2023-04-06T12:37:13;10.00;9.00;5.67
79038;PMS5003;68436;55.068;73.284;2023-04-06T12:39:40;9.75;8.50;5.75
79038;PMS5003;68436;55.068;73.284;2023-04-06T12:42:16;9.00;8.00;5.00
79038;PMS5003;68436;55.068;73.284;2023-04-06T12:44:44;9.00;8.00;4.00
79038;PMS5003;68436;55.068;73.284;2023-04-06T12:47:28;8.00;7.00;4.00
79038;PMS5003;68436;55.068;73.284;2023-04-06T12:50:13;12.00;9.00;5.00
79038;PMS5003;68436;55.068;73.284;2023-04-06T12:52:39;15.00;12.00;7.00
79038;PMS5003;68436;55.068;73.284;2023-04-06T12:55:23;19.00;16.50;10.00
79038;PMS5003;68436;55.068;73.284;2023-04-06T12:58:07;20.33;17.00;11.00
79038;PMS5003;68436;55.068;73.284;2023-04-06T13:06:02;28.75;23.50;14.75
79038;PMS5003;68436;55.068;73.284;2023-04-06T13:08:53;24.33;21.00;13.00
79038;PMS5003;68436;55.068;73.284;2023-04-06T13:11:37;27.00;22.00;13.75
79038;PMS5003;68436;55.068;73.284;2023-04-06T13:14:14;28.75;24.00;14.00
79038;PMS5003;68436;55.068;73.284;2023-04-06T13:19:25;51.75;40.50;24.00
79038;PMS5003;68436;55.068;73.284;2023-04-06T13:22:14;40.75;34.00;21.00
79038;PMS5003;68436;55.068;73.284;2023-04-06T13:24:41;23.00;20.00;13.00
79038;PMS5003;68436;55.068;73.284;2023-04-06T13:29:53;25.50;21.00;12.00
79038;PMS5003;68436;55.068;73.284;2023-04-06T13:32:20;32.00;25.00;15.00
79038;PMS5003;68436;55.068;73.284;2023-04-06T13:34:46;44.75;33.00;20.00
79038;PMS5003;68436;55.068;73.284;2023-04-06T13:37:20;48.00;37.00;22.67
79038;PMS5003;68436;55.068;73.284;2023-04-06T13:42:31;40.00;31.00;20.00
79038;PMS5003;68436;55.068;73.284;2023-04-06T13:50:51;17.00;15.00;8.00
79038;PMS5003;68436;55.068;73.284;2023-04-06T13:53:41;20.00;17.00;10.00
79038;PMS5003;68436;55.068;73.284;2023-04-06T13:56:25;19.50;17.25;12.00
79038;PMS5003;68436;55.068;73.284;2023-04-06T14:01:43;16.00;12.50;8.50
79038;PMS5003;68436;55.068;73.284;2023-04-06T14:04:09;20.00;18.00;11.75
79038;PMS5003;68436;55.068;73.284;2023-04-06T14:06:35;24.00;19.00;12.00
79038;PMS5003;68436;55.068;73.284;2023-04-06T14:09:01;25.00;19.50;12.00
79038;PMS5003;68436;55.068;73.284;2023-04-06T14:11:37;29.00;21.00;13.00
79038;PMS5003;68436;55.068;73.284;2023-04-06T14:14:03;27.67;22.00;14.00
79038;PMS5003;68436;55.068;73.284;2023-04-06T14:19:32;21.00;16.00;9.00
79038;PMS5003;68436;55.068;73.284;2023-04-06T14:22:03;18.33;15.33;8.67
79038;PMS5003;68436;55.068;73.284;2023-04-06T14:24:29;18.00;15.00;9.50
79038;PMS5003;68436;55.068;73.284;2023-04-06T14:27:14;21.33;17.00;11.00
79038;PMS5003;68436;55.068;73.284;2023-04-06T14:29:44;15.00;12.00;8.00
79038;PMS5003;68436;55.068;73.284;2023-04-06T14:32:11;14.00;12.00;8.00
79038;PMS5003;68436;55.068;73.284;2023-04-06T14:34:43;22.00;18.00;11.00
79038;PMS5003;68436;55.068;73.284;2023-04-06T14:37:12;20.33;17.33;11.00
79038;PMS5003;68436;55.068;73.284;2023-04-06T14:39:38;14.00;11.75;7.00
79038;PMS5003;68436;55.068;73.284;2023-04-06T14:42:04;19.25;15.25;9.00
79038;PMS5003;68436;55.068;73.284;2023-04-06T14:44:32;14.25;12.25;7.75
79038;PMS5003;68436;55.068;73.284;2023-04-06T14:47:26;11.00;10.00;7.00
79038;PMS5003;68436;55.068;73.284;2023-04-06T14:50:21;14.00;12.00;7.00
79038;PMS5003;68436;55.068;73.284;2023-04-06T14:52:47;13.00;11.67;7.00
79038;PMS5003;68436;55.068;73.284;2023-04-06T14:55:18;15.00;13.00;8.00
79038;PMS5003;68436;55.068;73.284;2023-04-06T14:57:45;22.33;19.00;12.00
79038;PMS5003;68436;55.068;73.284;2023-04-06T15:03:14;21.33;18.00;11.00
79038;PMS5003;68436;55.068;73.284;2023-04-06T15:05:58;17.00;14.00;9.00
79038;PMS5003;68436;55.068;73.284;2023-04-06T15:08:29;24.00;20.00;13.00
79038;PMS5003;68436;55.068;73.284;2023-04-06T15:13:40;23.00;17.67;10.67
79038;PMS5003;68436;55.068;73.284;2023-04-06T15:16:07;28.50;22.50;13.75
79038;PMS5003;68436;55.068;73.284;2023-04-06T15:18:33;21.25;17.50;10.75
79038;PMS5003;68436;55.068;73.284;2023-04-06T15:21:18;22.00;18.00;12.00
79038;PMS5003;68436;55.068;73.284;2023-04-06T15:23:45;14.00;11.00;7.00
79038;PMS5003;68436;55.068;73.284;2023-04-06T15:26:29;14.00;12.00;7.00
79038;PMS5003;68436;55.068;73.284;2023-04-06T15:28:55;14.00;12.00;8.00
79038;PMS5003;68436;55.068;73.284;2023-04-06T15:31:26;17.00;14.00;9.00
79038;PMS5003;68436;55.068;73.284;2023-04-06T15:33:54;26.00;22.00;14.00
79038;PMS5003;68436;55.068;73.284;2023-04-06T15:39:26;29.25;24.00;16.00
79038;PMS5003;68436;55.068;73.284;2023-04-06T15:42:02;23.33;19.33;12.00
79038;PMS5003;68436;55.068;73.284;2023-04-06T15:44:34;25.25;21.25;14.00
79038;PMS5003;68436;55.068;73.284;2023-04-06T15:47:00;19.50;17.50;12.00
79038;PMS5003;68436;55.068;73.284;2023-04-06T15:49:37;22.00;17.00;11.00
79038;PMS5003;68436;55.068;73.284;2023-04-06T15:52:03;25.67;21.00;12.67
79038;PMS5003;68436;55.068;73.284;2023-04-06T15:54:28;19.00;16.00;9.25
79038;PMS5003;68436;55.068;73.284;2023-04-06T15:57:00;15.00;12.00;8.00
79038;PMS5003;68436;55.068;73.284;2023-04-06T15:59:26;16.25;14.00;8.00
79038;PMS5003;68436;55.068;73.284;2023-04-06T16:02:00;17.00;14.00;8.33
79038;PMS5003;68436;55.068;73.284;2023-04-06T16:04:26;11.00;10.00;7.00
79038;PMS5003;68436;55.068;73.284;2023-04-06T16:07:00;20.00;17.00;9.00
79038;PMS5003;68436;55.068;73.284;2023-04-06T16:09:44;14.50;12.00;8.00
79038;PMS5003;68436;55.068;73.284;2023-04-06T16:12:39;16.00;13.00;8.00
79038;PMS5003;68436;55.068;73.284;2023-04-06T16:15:11;13.50;12.00;8.00
79038;PMS5003;68436;55.068;73.284;2023-04-06T16:18:06;15.67;13.00;7.00
79038;PMS5003;68436;55.068;73.284;2023-04-06T16:20:33;16.00;12.25;8.00
79038;PMS5003;68436;55.068;73.284;2023-04-06T16:22:59;14.00;12.00;7.00
79038;PMS5003;68436;55.068;73.284;2023-04-06T16:25:35;15.00;12.00;8.00
79038;PMS5003;68436;55.068;73.284;2023-04-06T16:28:01;15.00;12.00;8.00
79038;PMS5003;68436;55.068;73.284;2023-04-06T16:30:27;12.25;11.00;7.00
79038;PMS5003;68436;55.068;73.284;2023-04-06T16:32:55;11.33;9.00;7.00
79038;PMS5003;68436;55.068;73.284;2023-04-06T16:38:25;14.00;11.00;8.00
79038;PMS5003;68436;55.068;73.284;2023-04-06T16:40:59;13.25;11.00;7.00
79038;PMS5003;68436;55.068;73.284;2023-04-06T16:46:29;18.00;15.00;9.00
79038;PMS5003;68436;55.068;73.284;2023-04-06T16:51:44;16.25;14.00;9.00
79038;PMS5003;68436;55.068;73.284;2023-04-06T16:54:10;18.00;15.00;10.00
79038;PMS5003;68436;55.068;73.284;2023-04-06T16:56:36;20.50;18.00;11.75
79038;PMS5003;68436;55.068;73.284;2023-04-06T16:59:07;23.00;19.33;13.00
79038;PMS5003;68436;55.068;73.284;2023-04-06T17:01:33;25.00;21.50;13.50
79038;PMS5003;68436;55.068;73.284;2023-04-06T17:04:04;23.00;20.00;13.50
79038;PMS5003;68436;55.068;73.284;2023-04-06T17:06:30;22.50;19.00;13.00
79038;PMS5003;68436;55.068;73.284;2023-04-06T17:08:56;22.00;20.00;13.00
79038;PMS5003;68436;55.068;73.284;2023-04-06T17:11:24;21.00;18.00;12.00
79038;PMS5003;68436;55.068;73.284;2023-04-06T17:14:08;21.00;18.00;10.00
79038;PMS5003;68436;55.068;73.284;2023-04-06T17:16:34;25.00;20.75;13.00
79038;PMS5003;68436;55.068;73.284;2023-04-06T17:19:00;31.00;23.00;14.67
79038;PMS5003;68436;55.068;73.284;2023-04-06T17:21:27;35.25;26.50;14.50
79038;PMS5003;68436;55.068;73.284;2023-04-06T17:24:02;24.00;19.00;12.00
79038;PMS5003;68436;55.068;73.284;2023-04-06T17:26:46;25.00;20.75;13.00
79038;PMS5003;68436;55.068;73.284;2023-04-06T17:29:12;32.00;25.00;15.67
79038;PMS5003;68436;55.068;73.284;2023-04-06T17:31:38;22.00;18.25;11.00
79038;PMS5003;68436;55.068;73.284;2023-04-06T17:34:05;18.75;15.50;10.50
79038;PMS5003;68436;55.068;73.284;2023-04-06T17:36:31;19.00;17.00;11.00
79038;PMS5003;68436;55.068;73.284;2023-04-06T17:39:15;19.00;17.00;10.00
79038;PMS5003;68436;55.068;73.284;2023-04-06T17:44:44;17.00;14.00;8.25
79038;PMS5003;68436;55.068;73.284;2023-04-06T17:47:14;13.00;11.00;6.67
79038;PMS5003;68436;55.068;73.284;2023-04-06T17:49:41;12.00;10.00;6.00
79038;PMS5003;68436;55.068;73.284;2023-04-06T17:52:07;8.25;7.00;5.00
79038;PMS5003;68436;55.068;73.284;2023-04-06T17:54:33;11.00;9.00;6.00
79038;PMS5003;68436;55.068;73.284;2023-04-06T17:57:10;8.00;8.00;5.00
79038;PMS5003;68436;55.068;73.284;2023-04-06T17:59:46;9.25;7.75;4.00
79038;PMS5003;68436;55.068;73.284;2023-04-06T18:02:23;9.00;7.00;5.00
79038;PMS5003;68436;55.068;73.284;2023-04-06T18:04:59;9.00;8.00;5.00
79038;PMS5003;68436;55.068;73.284;2023-04-06T18:07:35;10.00;8.00;5.00
79038;PMS5003;68436;55.068;73.284;2023-04-06T18:10:02;14.00;8.00;6.00
79038;PMS5003;68436;55.068;73.284;2023-04-06T18:12:28;8.00;7.00;5.00
79038;PMS5003;68436;55.068;73.284;2023-04-06T18:14:54;8.00;7.00;5.00
79038;PMS5003;68436;55.068;73.284;2023-04-06T18:17:24;9.00;8.00;6.00
79038;PMS5003;68436;55.068;73.284;2023-04-06T18:19:55;11.00;9.00;6.00
79038;PMS5003;68436;55.068;73.284;2023-04-06T18:22:21;10.00;8.00;5.00
79038;PMS5003;68436;55.068;73.284;2023-04-06T18:24:47;21.25;14.00;8.00
79038;PMS5003;68436;55.068;73.284;2023-04-06T18:27:13;7.00;6.00;5.00
79038;PMS5003;68436;55.068;73.284;2023-04-06T18:29:45;10.00;8.00;5.00
79038;PMS5003;68436;55.068;73.284;2023-04-06T18:32:21;8.00;7.00;5.00